Time;durP1;ratioP1;P1;durP2;ratioP2;P2;SDS_P1;SDS_P2;PMS_P1;PMS_P2;Temp;Humidity;BMP_temperature;BMP_pressure;BME280_temperature;BME280_humidity;BME280_pressure;Samples;Min_cycle;Max_cycle;Signal;HPM_P1;HPM_P2
2022/11/22 17:28:30;;;;;;;5.85;1.90;;;;;;;17.31;43.47;94651.41;2108819;22;20410;-51
2022/11/22 17:29:31;;;;;;;5.00;1.65;;;;;;;17.49;44.61;94655.88;2105021;28;20048;-53
2022/11/22 17:31:13;;;;;;;4.93;1.98;;;;;;;17.79;42.79;94654.75;2095032;28;20588;-49
2022/11/22 17:32:15;;;;;;;6.13;1.90;;;;;;;18.05;42.33;94653.03;2094170;28;20412;-53
2022/11/22 17:33:16;;;;;;;7.00;1.90;;;;;;;18.33;41.18;94657.34;2047032;28;20049;-56
2022/11/22 18:03:04;;;;;;;8.55;2.70;;;;;;;12.60;45.38;94595.16;2120922;22;20217;-61
2022/11/22 18:04:05;;;;;;;7.70;2.75;;;;;;;11.47;48.05;94594.91;2104998;28;20032;-62
2022/11/22 18:05:08;;;;;;;9.75;2.97;;;;;;;10.11;51.17;94592.31;2105249;28;20503;-71
2022/11/22 18:06:10;;;;;;;6.80;2.78;;;;;;;9.41;54.13;94603.00;2104534;28;20039;-71
2022/11/22 18:07:11;;;;;;;7.15;2.80;;;;;;;8.36;57.12;94603.47;2104831;28;20044;-53
2022/11/22 18:08:12;;;;;;;9.20;2.97;;;;;;;8.14;58.00;94606.53;2104791;28;20506;-53
2022/11/22 18:09:13;;;;;;;8.43;2.83;;;;;;;7.44;60.10;94614.06;2105761;28;20044;-52
2022/11/22 18:10:14;;;;;;;11.95;3.00;;;;;;;7.37;60.49;94610.16;2105661;28;20392;-53
2022/11/22 18:11:15;;;;;;;5.95;2.60;;;;;;;7.16;61.84;94621.69;2105685;28;20059;-60
2022/11/22 18:12:17;;;;;;;9.30;3.08;;;;;;;6.72;63.66;94627.53;2105672;28;20063;-61
2022/11/22 18:13:19;;;;;;;7.50;3.00;;;;;;;6.53;63.91;94614.81;2105570;28;20055;-62
2022/11/22 18:14:20;;;;;;;10.00;2.97;;;;;;;6.37;64.44;94615.59;2105211;28;20108;-61
2022/11/22 18:15:22;;;;;;;12.70;3.28;;;;;;;6.13;65.19;94619.47;2104949;28;20075;-61
2022/11/22 18:16:27;;;;;;;9.60;3.00;;;;;;;5.95;66.13;94621.25;2105159;28;20458;-61
2022/11/22 18:17:31;;;;;;;5.45;3.00;;;;;;;5.69;66.68;94589.88;2105109;28;20060;-60
2022/11/22 18:18:32;;;;;;;7.78;3.10;;;;;;;5.51;67.22;94594.19;2104510;28;20048;-61
2022/11/22 18:19:33;;;;;;;8.27;3.20;;;;;;;5.48;67.84;94620.13;2104491;28;20551;-61
2022/11/22 18:20:35;;;;;;;7.00;2.78;;;;;;;5.20;69.24;94592.28;2104090;28;20059;-62
2022/11/22 18:21:37;;;;;;;5.80;2.60;;;;;;;5.12;70.82;94622.72;2105119;28;20119;-62
2022/11/22 18:22:38;;;;;;;8.88;4.18;;;;;;;4.89;70.49;94605.78;2103562;28;20040;-62
2022/11/22 18:23:40;;;;;;;7.47;3.10;;;;;;;4.97;70.50;94621.72;2104111;28;20055;-63
2022/11/22 18:24:41;;;;;;;8.73;3.60;;;;;;;4.88;71.22;94616.16;2105118;28;20056;-62
2022/11/22 18:25:42;;;;;;;6.63;3.25;;;;;;;4.58;71.75;94589.22;2104343;28;20060;-63
2022/11/22 18:26:43;;;;;;;7.05;3.55;;;;;;;4.75;71.67;94624.44;2105035;28;20062;-59
2022/11/22 18:27:44;;;;;;;9.07;3.33;;;;;;;4.69;72.18;94627.31;2104894;28;20056;-58
2022/11/22 18:28:45;;;;;;;6.75;3.22;;;;;;;4.45;72.12;94598.41;2104779;28;20601;-58
2022/11/22 18:29:46;;;;;;;13.15;3.58;;;;;;;4.54;73.38;94626.25;2105564;28;20057;-58
2022/11/22 18:30:47;;;;;;;11.95;3.33;;;;;;;4.48;73.67;94629.09;2104909;28;20431;-57
2022/11/22 18:31:48;;;;;;;11.23;3.40;;;;;;;4.41;74.06;94626.00;2104635;28;20059;-58
2022/11/22 18:32:49;;;;;;;6.85;3.60;;;;;;;4.32;74.30;94630.69;2105417;28;20056;-58
2022/11/22 18:33:52;;;;;;;9.38;4.10;;;;;;;4.25;74.48;94630.16;2105352;28;20056;-58
2022/11/22 18:34:54;;;;;;;6.65;3.22;;;;;;;4.22;74.58;94632.00;2105405;28;20063;-59
2022/11/22 18:36:04;;;;;;;8.73;3.45;;;;;;;4.14;74.53;94622.91;2105262;28;20052;-57
2022/11/22 18:37:05;;;;;;;8.23;3.42;;;;;;;4.17;74.70;94632.19;2105454;28;20063;-58
2022/11/22 18:38:06;;;;;;;9.50;4.25;;;;;;;4.14;75.30;94640.91;2105272;28;20056;-58
2022/11/22 18:39:08;;;;;;;8.95;3.58;;;;;;;3.93;75.37;94611.00;2104560;28;20071;-58
2022/11/22 18:40:09;;;;;;;9.13;3.17;;;;;;;4.05;75.40;94636.16;2105001;28;20396;-58
2022/11/22 18:41:10;;;;;;;12.18;4.00;;;;;;;4.02;76.12;94641.41;2104202;28;20048;-58
2022/11/22 18:42:13;;;;;;;10.73;4.00;;;;;;;4.00;76.69;94629.53;2104070;28;20044;-58
2022/11/22 18:43:14;;;;;;;7.80;3.65;;;;;;;3.92;77.44;94642.72;2104324;28;20435;-58
2022/11/22 18:44:15;;;;;;;10.35;3.90;;;;;;;3.80;77.21;94627.84;2105387;28;20059;-57
2022/11/22 18:45:17;;;;;;;11.15;4.40;;;;;;;3.66;77.60;94616.41;2105384;28;20059;-58
2022/11/22 18:46:18;;;;;;;10.88;4.13;;;;;;;3.76;77.90;94642.53;2104751;28;20056;-57
2022/11/22 18:47:19;;;;;;;10.43;4.30;;;;;;;3.71;78.31;94639.31;2105577;28;20056;-57
2022/11/22 18:48:20;;;;;;;12.40;4.05;;;;;;;3.73;77.79;94646.06;2105513;28;20047;-56
2022/11/22 18:49:21;;;;;;;10.63;3.75;;;;;;;3.50;78.18;94618.78;2105337;28;20391;-57
2022/11/22 18:50:22;;;;;;;9.18;3.72;;;;;;;3.68;78.32;94644.59;2104331;28;20056;-57
2022/11/22 18:51:24;;;;;;;10.63;4.32;;;;;;;3.65;78.10;94653.25;2104681;28;20036;-57
2022/11/22 18:52:25;;;;;;;13.00;4.40;;;;;;;3.63;77.96;94647.34;2104731;28;20060;-57
2022/11/22 18:53:29;;;;;;;7.25;3.50;;;;;;;3.61;78.15;94649.16;2104748;28;20075;-56
2022/11/22 18:54:30;;;;;;;7.95;3.65;;;;;;;3.60;78.17;94651.78;2105467;28;20403;-56
2022/11/22 18:55:32;;;;;;;7.88;3.30;;;;;;;3.47;78.40;94625.78;2104592;28;20056;-57
2022/11/22 18:56:36;;;;;;;7.32;3.78;;;;;;;3.60;78.80;94646.63;2105424;28;20048;-59
2022/11/22 18:57:37;;;;;;;11.77;4.18;;;;;;;3.57;78.83;94642.47;2105517;28;20063;-60
2022/11/22 18:58:39;;;;;;;6.57;3.67;;;;;;;3.56;78.97;94655.38;2105067;28;20056;-59
2022/11/22 18:59:40;;;;;;;11.73;4.10;;;;;;;3.55;79.04;94651.94;2105203;28;20052;-59
2022/11/22 19:00:41;;;;;;;7.28;3.60;;;;;;;3.53;78.86;94657.16;2104905;28;20055;-59
2022/11/22 19:01:42;;;;;;;11.80;3.65;;;;;;;3.48;78.68;94632.59;2105366;28;20056;-59
2022/11/22 19:02:43;;;;;;;8.82;3.67;;;;;;;3.60;78.61;94651.78;2104885;28;20476;-59
2022/11/22 19:03:44;;;;;;;5.95;3.22;;;;;;;3.58;78.88;94654.38;2105438;28;20064;-59
2022/11/22 19:04:45;;;;;;;7.75;2.97;;;;;;;3.57;78.91;94657.03;2105280;28;20052;-60
2022/11/22 19:05:46;;;;;;;8.02;3.45;;;;;;;3.59;79.06;94656.06;2104482;28;20083;-59
2022/11/22 19:06:47;;;;;;;11.10;3.60;;;;;;;3.58;78.91;94654.38;2104389;28;20056;-59
2022/11/22 19:07:49;;;;;;;8.40;3.50;;;;;;;3.59;78.51;94657.81;2105136;28;20052;-60
2022/11/22 19:08:50;;;;;;;7.25;3.20;;;;;;;3.58;78.67;94661.25;2105126;28;20052;-59
2022/11/22 19:09:51;;;;;;;10.02;3.75;;;;;;;3.60;78.32;94667.19;2105554;28;20417;-60
2022/11/22 19:10:56;;;;;;;8.20;3.42;;;;;;;3.59;78.78;94668.91;2105273;28;20055;-60
2022/11/22 19:11:57;;;;;;;7.72;3.53;;;;;;;3.59;78.87;94663.78;2105301;28;20028;-59
2022/11/22 19:12:58;;;;;;;7.45;3.75;;;;;;;3.57;79.13;94665.56;2104509;28;20048;-59
2022/11/22 19:13:59;;;;;;;6.43;3.33;;;;;;;3.59;78.60;94668.09;2101569;28;20055;-59
2022/11/22 19:15:00;;;;;;;8.40;3.05;;;;;;;3.65;78.89;94671.22;2099731;28;20063;-59
2022/11/22 19:16:15;;;;;;;10.00;3.70;;;;;;;3.53;78.84;94646.06;2099839;28;20102;-59
2022/11/22 19:17:16;;;;;;;11.40;3.75;;;;;;;3.64;78.37;94672.13;2099075;28;20064;-60
2022/11/22 19:18:18;;;;;;;8.90;3.70;;;;;;;3.52;78.62;94642.66;2099906;28;20052;-59
2022/11/22 19:19:20;;;;;;;7.72;3.15;;;;;;;3.73;78.36;94670.91;2098901;28;20511;-59
2022/11/22 19:20:21;;;;;;;11.63;3.95;;;;;;;3.75;78.31;94669.94;2098818;28;20059;-59
2022/11/22 19:21:24;;;;;;;7.63;3.47;;;;;;;3.78;78.46;94679.25;2099989;28;20060;-59
2022/11/22 19:22:25;;;;;;;8.77;3.85;;;;;;;3.78;78.34;94673.28;2098778;28;20064;-61
2022/11/22 19:23:26;;;;;;;13.43;4.28;;;;;;;3.81;78.29;94678.28;2099462;28;20071;-58
2022/11/22 19:24:27;;;;;;;7.97;3.80;;;;;;;3.80;78.46;94679.19;2099466;28;20057;-60
2022/11/22 19:25:28;;;;;;;9.07;3.33;;;;;;;3.83;78.26;94679.06;2099563;28;20079;-60
2022/11/22 19:26:30;;;;;;;12.48;3.78;;;;;;;3.83;78.32;94673.94;2099458;28;20052;-58
2022/11/22 19:27:31;;;;;;;8.57;3.60;;;;;;;3.85;77.96;94677.25;2099752;28;20056;-59
2022/11/22 19:28:32;;;;;;;11.65;3.83;;;;;;;3.70;78.25;94653.06;2099661;28;20060;-59
2022/11/22 19:29:33;;;;;;;8.27;3.63;;;;;;;3.76;78.72;94670.78;2099531;28;20056;-60
2022/11/22 19:30:34;;;;;;;7.72;3.85;;;;;;;3.72;78.36;94661.53;2099410;28;20443;-59
2022/11/22 19:31:35;;;;;;;8.50;3.58;;;;;;;3.82;78.81;94677.38;2099676;28;20041;-63
2022/11/22 19:32:36;;;;;;;6.95;3.70;;;;;;;3.79;78.14;94680.09;2098819;28;20068;-58
2022/11/22 19:33:37;;;;;;;7.95;3.30;;;;;;;3.69;77.93;94652.25;2099503;28;20052;-58
2022/11/22 19:34:38;;;;;;;11.23;3.45;;;;;;;3.86;78.41;94678.94;2099416;28;20060;-59
2022/11/22 19:35:40;;;;;;;9.20;3.33;;;;;;;3.87;77.66;94681.41;2099466;28;20370;-58
2022/11/22 19:36:42;;;;;;;9.68;3.42;;;;;;;3.61;78.08;94632.88;2098848;28;20052;-59
2022/11/22 19:37:43;;;;;;;8.35;3.35;;;;;;;3.92;77.25;94678.66;2098798;28;20044;-59
2022/11/22 19:38:44;;;;;;;9.05;3.85;;;;;;;3.93;77.78;94686.31;2099433;28;20071;-59
2022/11/22 19:39:47;;;;;;;7.47;3.30;;;;;;;3.94;77.25;94676.88;2099737;28;20059;-59
2022/11/22 19:40:48;;;;;;;11.25;4.28;;;;;;;3.96;77.03;94682.78;2099270;28;20051;-59
2022/11/22 19:41:49;;;;;;;10.15;3.72;;;;;;;3.84;77.60;94661.00;2099393;28;20509;-59
2022/11/22 19:42:50;;;;;;;10.15;3.85;;;;;;;3.98;77.93;94684.41;2099377;28;20056;-59
2022/11/22 19:43:51;;;;;;;10.30;4.00;;;;;;;3.94;77.48;94675.13;2099252;28;20408;-59
2022/11/22 19:44:52;;;;;;;7.20;4.00;;;;;;;3.89;77.98;94671.09;2099463;28;20048;-59
2022/11/22 19:45:58;;;;;;;11.40;3.90;;;;;;;3.97;78.05;94680.13;2099444;28;20047;-59
2022/11/22 19:46:59;;;;;;;11.25;4.63;;;;;;;3.94;78.25;94676.88;2099504;28;20044;-60
2022/11/22 19:48:00;;;;;;;8.38;3.58;;;;;;;3.97;78.08;94681.88;2099590;28;20048;-59
2022/11/22 19:49:02;;;;;;;8.88;3.80;;;;;;;4.01;77.62;94678.28;2099382;28;20059;-59
2022/11/22 19:50:03;;;;;;;9.65;3.45;;;;;;;4.05;77.10;94682.38;2099206;28;20037;-59
2022/11/22 19:51:08;;;;;;;8.90;4.00;;;;;;;3.84;77.39;94655.88;2099239;28;20052;-59
2022/11/22 19:52:09;;;;;;;8.82;3.85;;;;;;;4.04;77.45;94685.88;2098587;28;20056;-59
2022/11/22 19:53:10;;;;;;;9.15;4.00;;;;;;;4.05;77.37;94679.81;2099340;28;20056;-59
2022/11/22 19:54:11;;;;;;;9.77;3.35;;;;;;;4.05;77.22;94691.84;2099434;28;20041;-59
2022/11/22 19:55:12;;;;;;;9.95;3.83;;;;;;;4.00;77.71;94670.66;2099204;28;20397;-60
2022/11/22 19:56:17;;;;;;;13.05;3.88;;;;;;;4.09;77.22;94683.94;2099429;28;20464;-54
2022/11/22 19:57:18;;;;;;;10.15;3.92;;;;;;;4.10;77.00;94687.34;2099450;28;20060;-54
2022/11/22 19:58:19;;;;;;;12.13;3.97;;;;;;;4.10;76.92;94677.06;2099274;28;20068;-53
2022/11/22 19:59:20;;;;;;;11.50;3.33;;;;;;;4.12;77.10;94682.97;2099178;28;20484;-54
2022/11/22 20:00:21;;;;;;;10.57;3.38;;;;;;;4.13;77.30;94688.03;2099154;28;20067;-53
2022/11/22 20:01:23;;;;;;;9.85;3.33;;;;;;;4.10;77.31;94693.31;2099127;28;20063;-53
2022/11/22 20:02:24;;;;;;;10.18;3.60;;;;;;;4.07;77.40;94685.72;2098903;28;20443;-53
2022/11/22 20:03:25;;;;;;;9.10;3.30;;;;;;;4.11;77.40;94679.53;2098843;28;20048;-54
2022/11/22 20:04:26;;;;;;;7.72;3.47;;;;;;;4.12;76.67;94685.53;2099284;28;20052;-53
2022/11/22 20:05:31;;;;;;;7.47;3.30;;;;;;;4.11;76.52;94679.53;2099067;28;20049;-54
2022/11/22 20:06:32;;;;;;;10.05;3.38;;;;;;;4.16;76.30;94681.94;2099275;28;20476;-56
2022/11/22 20:07:33;;;;;;;8.80;3.90;;;;;;;4.16;76.49;94681.94;2099027;28;20048;-56
2022/11/22 20:08:35;;;;;;;7.97;3.50;;;;;;;4.12;77.23;94677.84;2098992;28;20051;-56
2022/11/22 20:09:36;;;;;;;5.97;3.17;;;;;;;4.11;76.62;94679.53;2099078;28;20387;-56
2022/11/22 20:10:38;;;;;;;8.70;3.70;;;;;;;4.14;76.98;94679.44;2098376;28;20432;-56
2022/11/22 20:11:40;;;;;;;6.97;3.15;;;;;;;3.93;76.94;94646.97;2099173;28;20049;-56
2022/11/22 20:12:44;;;;;;;8.10;3.03;;;;;;;4.11;77.03;94684.69;2099070;28;20053;-56
2022/11/22 20:13:47;;;;;;;8.05;3.20;;;;;;;3.90;76.97;94654.78;2099147;28;20052;-56
2022/11/22 20:14:48;;;;;;;8.18;3.30;;;;;;;3.85;77.97;94656.69;2099187;28;20392;-56
2022/11/22 20:15:49;;;;;;;11.35;3.53;;;;;;;4.06;77.32;94686.63;2099139;28;20052;-56
2022/11/22 20:16:50;;;;;;;7.10;3.20;;;;;;;4.01;77.55;94680.00;2099281;28;20052;-56
2022/11/22 20:17:52;;;;;;;6.95;2.95;;;;;;;4.01;77.61;94685.16;2099303;28;20061;-58
2022/11/22 20:18:57;;;;;;;5.63;2.70;;;;;;;3.86;77.61;94666.94;2098205;28;20067;-58
2022/11/22 20:19:58;;;;;;;6.50;2.63;;;;;;;3.96;78.03;94687.94;2098491;28;20511;-58
2022/11/22 20:21:03;;;;;;;7.05;2.65;;;;;;;3.96;77.61;94687.94;2099210;28;20048;-58
2022/11/22 20:22:04;;;;;;;9.52;2.90;;;;;;;3.96;78.37;94693.06;2098350;28;20056;-57
2022/11/22 20:23:05;;;;;;;10.20;2.40;;;;;;;3.96;77.89;94695.63;2098958;28;20440;-57
2022/11/22 20:24:06;;;;;;;8.70;2.00;;;;;;;3.91;78.12;94682.16;2099036;28;20041;-57
2022/11/22 20:25:07;;;;;;;7.80;2.20;;;;;;;3.93;78.25;94695.78;2098906;28;20056;-56
2022/11/22 20:26:10;;;;;;;3.75;1.80;;;;;;;3.91;77.93;94687.28;2098125;28;20041;-58
2022/11/22 20:27:12;;;;;;;5.68;1.52;;;;;;;3.92;78.25;94691.50;2098519;28;20036;-57
2022/11/22 20:28:13;;;;;;;7.30;2.20;;;;;;;3.94;77.98;94690.56;2097387;28;20052;-58
2022/11/22 20:29:14;;;;;;;6.88;1.60;;;;;;;3.97;78.01;94692.97;2098293;28;20048;-59
2022/11/22 20:30:16;;;;;;;7.25;1.65;;;;;;;3.95;77.82;94684.50;2099152;28;20067;-59
2022/11/22 20:31:18;;;;;;;6.40;1.60;;;;;;;3.98;78.02;94693.81;2098661;28;20064;-58
2022/11/22 20:32:19;;;;;;;6.00;1.77;;;;;;;3.98;78.12;94691.25;2098035;28;20052;-57
2022/11/22 20:33:20;;;;;;;3.28;1.50;;;;;;;3.97;78.08;94687.84;2098296;28;20056;-57
2022/11/22 20:34:21;;;;;;;6.63;1.92;;;;;;;3.84;78.24;94671.28;2098244;28;20052;-57
2022/11/22 20:35:22;;;;;;;5.07;1.95;;;;;;;3.99;77.74;94692.94;2098776;28;20068;-57
2022/11/22 20:36:25;;;;;;;8.68;1.95;;;;;;;3.96;78.11;94699.03;2098956;28;20052;-58
2022/11/22 20:37:26;;;;;;;5.00;1.70;;;;;;;3.95;77.89;94697.34;2098183;28;20086;-58
2022/11/22 20:38:27;;;;;;;4.90;1.77;;;;;;;3.95;78.33;94697.34;2098977;28;20040;-58
2022/11/22 20:39:29;;;;;;;6.82;2.00;;;;;;;3.97;78.71;94705.00;2097853;28;20064;-58
2022/11/22 20:40:30;;;;;;;4.63;2.10;;;;;;;3.93;79.12;94706.88;2098343;28;20049;-58
2022/11/22 20:41:31;;;;;;;7.38;1.85;;;;;;;3.95;78.72;94710.19;2098957;28;20067;-60
2022/11/22 20:42:33;;;;;;;8.90;1.90;;;;;;;3.84;78.93;94686.69;2098936;28;20060;-59
2022/11/22 20:43:34;;;;;;;4.80;1.88;;;;;;;3.67;79.50;94668.59;2098804;28;20147;-60
2022/11/22 20:44:35;;;;;;;7.07;1.90;;;;;;;3.93;79.47;94709.44;2098764;28;20451;-60
2022/11/22 20:45:36;;;;;;;8.10;2.33;;;;;;;3.94;79.32;94717.97;2098248;28;20064;-60
2022/11/22 20:46:38;;;;;;;6.10;2.05;;;;;;;3.92;79.04;94718.03;2098926;28;20052;-60
2022/11/22 20:47:39;;;;;;;6.70;2.33;;;;;;;3.91;79.48;94712.97;2098796;28;20075;-60
2022/11/22 20:48:40;;;;;;;8.35;2.15;;;;;;;3.92;79.53;94717.19;2098732;28;20056;-60
2022/11/22 20:49:41;;;;;;;5.28;1.75;;;;;;;3.91;79.63;94716.38;2098793;28;20048;-59
2022/11/22 20:50:48;;;;;;;8.98;1.85;;;;;;;3.90;79.77;94722.41;2098084;28;20067;-60
2022/11/22 20:51:49;;;;;;;2.97;1.55;;;;;;;3.91;79.85;94724.06;2098303;28;20061;-53
2022/11/22 20:52:51;;;;;;;6.93;2.28;;;;;;;3.92;80.30;94718.03;2098242;28;20519;-53
2022/11/22 20:53:52;;;;;;;3.72;1.70;;;;;;;3.91;80.01;94724.06;2098658;28;20456;-54
2022/11/22 20:54:53;;;;;;;6.82;2.60;;;;;;;3.91;80.38;94724.06;2098723;28;20048;-53
2022/11/22 20:55:54;;;;;;;7.45;2.08;;;;;;;3.90;80.09;94730.13;2098587;28;20388;-53
2022/11/22 20:56:55;;;;;;;7.05;1.75;;;;;;;3.91;80.34;94724.06;2098833;28;20043;-57
2022/11/22 20:57:56;;;;;;;7.40;1.80;;;;;;;3.75;80.57;94698.19;2098611;28;20055;-58
2022/11/22 20:58:58;;;;;;;6.25;2.15;;;;;;;3.75;80.59;94698.19;2098285;28;20041;-59
2022/11/22 20:59:59;;;;;;;6.43;1.95;;;;;;;3.96;80.63;94727.28;2098022;28;20053;-58
2022/11/22 21:01:07;;;;;;;6.63;1.80;;;;;;;3.77;80.35;94690.44;2098714;28;20059;-58
2022/11/22 21:02:09;;;;;;;4.82;1.65;;;;;;;3.72;80.85;94698.31;2098736;28;20052;-58
2022/11/22 21:03:10;;;;;;;4.78;2.03;;;;;;;3.91;80.50;94736.91;2098814;28;20048;-58
2022/11/22 21:04:11;;;;;;;7.18;2.63;;;;;;;3.92;81.05;94738.56;2098514;28;20487;-58
2022/11/22 21:05:12;;;;;;;4.55;1.83;;;;;;;3.92;81.73;94730.03;2098852;28;20051;-58
2022/11/22 21:06:13;;;;;;;5.45;2.08;;;;;;;3.75;81.57;94716.16;2098115;28;20048;-53
2022/11/22 21:07:14;;;;;;;5.60;2.10;;;;;;;3.87;81.23;94724.25;2098533;28;20060;-54
2022/11/22 21:08:15;;;;;;;4.97;1.83;;;;;;;3.90;81.91;94731.81;2098560;28;20052;-53
2022/11/22 21:09:17;;;;;;;6.65;1.90;;;;;;;3.89;81.53;94735.31;2098637;28;20060;-53
2022/11/22 21:10:18;;;;;;;7.78;2.10;;;;;;;3.89;82.02;94735.31;2098557;28;20092;-54
2022/11/22 21:11:21;;;;;;;5.22;1.70;;;;;;;3.68;81.72;94691.63;2098205;28;20048;-54
2022/11/22 21:12:22;;;;;;;12.52;1.85;;;;;;;3.88;81.57;94738.78;2098068;28;20056;-54
2022/11/22 21:13:23;;;;;;;7.82;2.38;;;;;;;3.75;82.07;94711.03;2097885;28;20053;-54
2022/11/22 21:14:24;;;;;;;5.03;1.90;;;;;;;3.87;81.43;94737.94;2098529;28;20051;-54
2022/11/22 21:15:25;;;;;;;10.43;2.47;;;;;;;3.85;82.28;94733.75;2098839;28;20056;-55
2022/11/22 21:16:27;;;;;;;5.65;2.08;;;;;;;3.65;82.11;94701.19;2098539;28;20511;-54
2022/11/22 21:17:28;;;;;;;5.13;2.05;;;;;;;3.87;82.06;94739.66;2098718;28;20052;-55
2022/11/22 21:18:30;;;;;;;3.63;1.83;;;;;;;3.84;82.14;94729.53;2098804;28;20146;-54
2022/11/22 21:19:31;;;;;;;8.10;2.17;;;;;;;3.82;82.15;94728.75;2098537;28;20052;-55
2022/11/22 21:20:32;;;;;;;5.43;1.90;;;;;;;3.83;82.57;94733.84;2098650;28;20045;-54
2022/11/22 21:21:34;;;;;;;9.52;2.33;;;;;;;3.73;82.23;94720.53;2098600;28;20488;-60
2022/11/22 21:22:35;;;;;;;4.20;1.90;;;;;;;3.80;83.07;94735.69;2097351;28;20127;-59
2022/11/22 21:23:37;;;;;;;4.55;1.80;;;;;;;3.79;82.46;94734.00;2097594;28;20064;-60
2022/11/22 21:24:38;;;;;;;13.15;2.88;;;;;;;3.75;82.89;94731.56;2097574;28;20044;-60
2022/11/22 21:25:39;;;;;;;5.05;2.20;;;;;;;3.74;83.34;94737.63;2098556;28;20051;-60
2022/11/22 21:26:40;;;;;;;7.15;2.33;;;;;;;3.72;83.22;94739.41;2098812;28;20059;-59
2022/11/22 21:27:41;;;;;;;6.50;2.40;;;;;;;3.74;83.45;94742.75;2098719;28;20053;-60
2022/11/22 21:28:42;;;;;;;7.43;2.60;;;;;;;3.72;83.40;94736.00;2098564;28;20067;-60
2022/11/22 21:29:43;;;;;;;9.40;2.30;;;;;;;3.70;83.83;94735.22;2098657;28;20048;-59
2022/11/22 21:30:44;;;;;;;7.13;2.55;;;;;;;3.74;83.55;94741.88;2098658;28;20052;-59
2022/11/22 21:31:45;;;;;;;5.05;1.90;;;;;;;3.73;83.74;94741.06;2098662;28;20581;-63
2022/11/22 21:32:46;;;;;;;6.00;2.47;;;;;;;3.73;83.92;94735.94;2098480;28;20064;-61
2022/11/22 21:33:47;;;;;;;7.10;2.08;;;;;;;3.70;83.83;94736.06;2098456;28;20404;-61
2022/11/22 21:34:48;;;;;;;6.10;2.10;;;;;;;3.72;83.37;94744.53;2098577;28;20051;-61
2022/11/22 21:35:50;;;;;;;9.85;2.55;;;;;;;3.71;83.99;94736.88;2098496;28;20060;-60
2022/11/22 21:36:51;;;;;;;9.25;2.65;;;;;;;3.69;84.56;94736.97;2097670;28;20075;-62
2022/11/22 21:37:53;;;;;;;5.32;1.80;;;;;;;3.69;83.92;94741.28;2098511;28;20053;-62
2022/11/22 21:38:54;;;;;;;6.60;2.38;;;;;;;3.68;84.06;94730.13;2098586;28;20044;-61
2022/11/22 21:39:55;;;;;;;9.63;2.38;;;;;;;3.71;84.26;94735.16;2098460;28;20044;-61
2022/11/22 21:40:57;;;;;;;8.43;2.45;;;;;;;3.41;84.13;94688.44;2098549;28;20052;-61
2022/11/22 21:41:59;;;;;;;4.28;2.03;;;;;;;3.72;84.21;94734.25;2098596;28;20052;-60
2022/11/22 21:43:00;;;;;;;6.95;2.25;;;;;;;3.70;84.12;94741.19;2097991;28;20122;-59
2022/11/22 21:44:01;;;;;;;6.10;2.40;;;;;;;3.69;83.97;94739.53;2098382;28;20044;-60
2022/11/22 21:45:02;;;;;;;5.50;2.28;;;;;;;3.70;83.88;94733.50;2098434;28;20048;-60
2022/11/22 21:46:03;;;;;;;8.10;2.10;;;;;;;3.69;84.42;94734.41;2098513;28;20041;-60
2022/11/22 21:47:04;;;;;;;4.82;2.30;;;;;;;3.68;84.18;94735.28;2098415;28;20056;-59
2022/11/22 21:48:06;;;;;;;6.90;2.72;;;;;;;3.68;84.29;94737.00;2098494;28;20071;-59
2022/11/22 21:49:07;;;;;;;8.55;2.65;;;;;;;3.66;84.08;94739.66;2098027;28;20053;-59
2022/11/22 21:50:08;;;;;;;7.63;2.92;;;;;;;3.31;84.05;94682.88;2097782;28;20049;-59
2022/11/22 21:51:09;;;;;;;7.97;2.47;;;;;;;3.68;83.96;94742.97;2098349;28;20047;-59
2022/11/22 21:52:10;;;;;;;6.45;2.78;;;;;;;3.70;84.04;94753.19;2098443;28;20074;-60
2022/11/22 21:53:11;;;;;;;8.68;2.92;;;;;;;3.51;84.27;94718.00;2098411;28;20048;-59
2022/11/22 21:54:13;;;;;;;7.95;2.67;;;;;;;3.60;84.15;94732.19;2098400;28;20057;-60
2022/11/22 21:55:14;;;;;;;8.48;2.60;;;;;;;3.70;84.05;94750.63;2098552;28;20498;-60
2022/11/22 21:56:15;;;;;;;5.72;2.38;;;;;;;3.70;83.84;94743.75;2097990;28;20048;-56
2022/11/22 21:57:16;;;;;;;6.50;2.80;;;;;;;3.71;84.35;94747.16;2098656;28;20055;-56
2022/11/22 21:58:17;;;;;;;7.78;3.17;;;;;;;3.73;84.13;94751.34;2098482;28;20479;-56
2022/11/22 21:59:18;;;;;;;7.07;2.45;;;;;;;3.73;83.89;94746.19;2098392;28;20039;-56
2022/11/22 22:00:20;;;;;;;11.88;3.13;;;;;;;3.73;83.85;94753.91;2098345;28;20049;-56
2022/11/22 22:01:21;;;;;;;5.38;2.55;;;;;;;3.69;83.98;94744.66;2098695;28;20044;-54
2022/11/22 22:02:22;;;;;;;8.30;2.60;;;;;;;3.71;83.85;94742.84;2098448;28;20095;-54
2022/11/22 22:03:23;;;;;;;7.38;2.42;;;;;;;3.74;84.09;94752.16;2097390;28;20049;-54
2022/11/22 22:04:24;;;;;;;6.70;2.70;;;;;;;3.58;83.88;94726.25;2098519;28;20048;-54
2022/11/22 22:05:26;;;;;;;9.57;3.00;;;;;;;3.76;84.67;94753.78;2098345;28;20036;-55
2022/11/22 22:06:27;;;;;;;7.75;2.53;;;;;;;3.76;83.66;94750.38;2097786;28;20057;-54
2022/11/22 22:07:28;;;;;;;7.93;2.65;;;;;;;3.75;83.61;94746.16;2098368;28;20052;-54
2022/11/22 22:08:29;;;;;;;7.40;2.55;;;;;;;3.80;83.49;94751.09;2098447;28;20094;-54
2022/11/22 22:09:30;;;;;;;7.43;3.22;;;;;;;3.79;83.57;94751.97;2098240;28;20052;-54
2022/11/22 22:10:31;;;;;;;6.13;2.78;;;;;;;3.81;83.48;94763.03;2098371;28;20052;-54
2022/11/22 22:11:32;;;;;;;6.60;2.75;;;;;;;3.80;83.46;94756.25;2098448;28;20041;-59
2022/11/22 22:12:34;;;;;;;6.45;2.28;;;;;;;3.79;83.49;94751.97;2098452;28;20057;-59
2022/11/22 22:13:35;;;;;;;7.00;2.65;;;;;;;3.67;83.31;94733.63;2098308;28;20079;-60
2022/11/22 22:14:36;;;;;;;6.85;2.45;;;;;;;3.82;83.23;94757.00;2097928;28;20052;-60
2022/11/22 22:15:38;;;;;;;4.75;2.45;;;;;;;3.64;83.19;94735.47;2097590;28;20071;-60
2022/11/22 22:16:39;;;;;;;9.55;3.22;;;;;;;3.85;83.40;94756.88;2098523;28;20051;-59
2022/11/22 22:17:40;;;;;;;7.30;2.88;;;;;;;3.86;83.49;94761.13;2096775;28;20056;-59
2022/11/22 22:18:42;;;;;;;5.22;2.50;;;;;;;3.85;83.28;94764.56;2098467;28;20143;-59
2022/11/22 22:19:43;;;;;;;4.88;2.50;;;;;;;3.84;83.47;94766.31;2098411;28;20037;-60
2022/11/22 22:20:44;;;;;;;8.55;2.90;;;;;;;3.86;82.71;94761.13;2097639;28;20064;-60
2022/11/22 22:21:46;;;;;;;10.27;3.00;;;;;;;3.86;83.30;94763.69;2097756;28;20056;-54
2022/11/22 22:22:47;;;;;;;5.38;2.50;;;;;;;3.86;83.10;94761.94;2098296;28;20044;-53
2022/11/22 22:23:48;;;;;;;9.98;2.83;;;;;;;3.80;83.38;94757.06;2098504;28;20059;-54
2022/11/22 22:24:50;;;;;;;6.65;2.63;;;;;;;3.85;83.04;94764.56;2097516;28;20059;-54
2022/11/22 22:25:55;;;;;;;8.23;2.90;;;;;;;3.83;83.18;94762.06;2097603;28;20056;-54
2022/11/22 22:26:56;;;;;;;8.98;2.83;;;;;;;3.81;83.41;94760.47;2101172;28;20469;-59
2022/11/22 22:27:58;;;;;;;7.75;2.60;;;;;;;3.82;83.09;94760.38;2098222;28;20040;-60
2022/11/22 22:28:59;;;;;;;4.05;2.22;;;;;;;3.84;82.82;94762.91;2098364;28;20048;-60
2022/11/22 22:30:00;;;;;;;7.93;2.92;;;;;;;3.82;83.36;94765.53;2098330;28;20056;-60
2022/11/22 22:31:03;;;;;;;8.77;2.92;;;;;;;3.82;83.46;94769.84;2097572;28;20051;-60
2022/11/22 22:32:04;;;;;;;8.90;2.92;;;;;;;3.59;83.20;94734.81;2098052;28;20444;-60
2022/11/22 22:33:05;;;;;;;5.90;2.60;;;;;;;3.78;83.18;94760.59;2098524;28;20055;-60
2022/11/22 22:34:07;;;;;;;8.75;2.78;;;;;;;3.83;83.28;94766.38;2098294;28;20052;-60
2022/11/22 22:35:08;;;;;;;5.32;2.35;;;;;;;3.84;82.90;94773.19;2098308;28;20036;-60
2022/11/22 22:36:10;;;;;;;8.02;2.65;;;;;;;3.78;83.14;94764.00;2098319;28;20036;-60
2022/11/22 22:37:11;;;;;;;9.80;3.47;;;;;;;3.81;83.28;94768.16;2097729;28;20457;-61
2022/11/22 22:38:12;;;;;;;6.82;3.15;;;;;;;3.81;83.25;94768.16;2098243;28;20053;-62
2022/11/22 22:39:13;;;;;;;8.10;2.83;;;;;;;3.81;82.73;94771.56;2098230;28;20404;-61
2022/11/22 22:40:14;;;;;;;7.47;3.00;;;;;;;3.82;83.12;94772.41;2098295;28;20049;-62
2022/11/22 22:41:15;;;;;;;6.55;2.63;;;;;;;3.80;83.29;94769.09;2097476;28;20044;-60
2022/11/22 22:42:16;;;;;;;5.47;2.75;;;;;;;3.83;83.40;94772.34;2098086;28;20033;-60
2022/11/22 22:43:18;;;;;;;5.25;2.50;;;;;;;3.84;82.75;94776.56;2098322;28;20044;-60
2022/11/22 22:44:19;;;;;;;8.38;3.25;;;;;;;3.85;83.05;94764.56;2098236;28;20072;-59
2022/11/22 22:45:20;;;;;;;7.70;3.22;;;;;;;3.85;82.93;94778.28;2097379;28;20056;-59
2022/11/22 22:46:21;;;;;;;6.43;2.85;;;;;;;3.83;83.29;94772.34;2098210;28;20045;-60
2022/11/22 22:47:23;;;;;;;9.10;3.40;;;;;;;3.83;83.33;94774.91;2097968;28;20068;-60
2022/11/22 22:48:24;;;;;;;5.60;2.78;;;;;;;3.79;83.52;94770.78;2097511;28;20415;-60
2022/11/22 22:49:25;;;;;;;7.25;3.10;;;;;;;3.84;83.72;94784.28;2098958;28;20060;-60